createdAt,value
2023-02-18T00:01:21.079Z,12.00
2023-02-18T00:06:31.203Z,12.20
2023-02-18T00:11:36.203Z,12.30
2023-02-18T00:16:38.084Z,12.30
2023-02-18T00:21:39.905Z,12.30
2023-02-18T00:26:42.566Z,12.40
2023-02-18T00:31:44.771Z,12.30
2023-02-18T00:36:46.609Z,12.30
2023-02-18T00:41:48.402Z,12.30
2023-02-18T00:46:50.325Z,12.30
2023-02-18T00:51:52.108Z,12.30
2023-02-18T00:56:53.921Z,12.30
2023-02-18T01:01:55.881Z,12.40
2023-02-18T01:06:57.621Z,12.50
2023-02-18T01:11:59.358Z,12.40
2023-02-18T01:17:01.205Z,12.30
2023-02-18T01:22:03.292Z,12.30
2023-02-18T01:27:05.319Z,12.30
2023-02-18T01:32:07.198Z,12.40
2023-02-18T01:37:09.100Z,12.30
2023-02-18T01:42:23.322Z,12.20
2023-02-18T01:47:25.099Z,12.30
2023-02-18T01:52:27.928Z,12.20
2023-02-18T01:57:34.540Z,12.10
2023-02-18T02:02:39.853Z,12.20
2023-02-18T02:07:43.879Z,12.20
2023-02-18T02:13:20.263Z,12.10
2023-02-18T02:18:40.575Z,12.30
2023-02-18T02:24:19.859Z,12.30
2023-02-18T02:29:58.843Z,12.40
2023-02-18T02:35:09.863Z,12.30
2023-02-18T02:40:36.447Z,12.30
2023-02-18T02:46:26.200Z,12.30
2023-02-18T02:51:38.363Z,12.40
2023-02-18T02:56:40.753Z,12.30
2023-02-18T03:02:12.995Z,12.20
2023-02-18T03:07:23.779Z,12.20
2023-02-18T03:12:44.348Z,12.20
2023-02-18T03:17:49.077Z,12.20
2023-02-18T03:22:53.597Z,12.20
2023-02-18T03:28:06.902Z,12.20
2023-02-18T03:33:11.113Z,12.10
2023-02-18T03:38:19.455Z,12.20
2023-02-18T03:43:21.270Z,12.30
2023-02-18T03:48:23.508Z,12.20
2023-02-18T03:53:25.249Z,12.30
2023-02-18T03:58:27.006Z,12.20
2023-02-18T04:03:28.730Z,12.20
2023-02-18T04:08:30.576Z,12.30
2023-02-18T04:13:32.547Z,13.50
2023-02-18T04:18:34.265Z,12.10
2023-02-18T04:23:36.002Z,12.20
2023-02-18T04:28:37.813Z,12.20
2023-02-18T04:33:39.571Z,12.20
2023-02-18T04:38:43.130Z,12.30
2023-02-18T04:43:45.181Z,12.00
2023-02-18T04:48:46.967Z,12.20
2023-02-18T04:53:48.846Z,12.20
2023-02-18T04:58:50.638Z,12.20
2023-02-18T05:03:52.464Z,12.30
2023-02-18T05:08:54.256Z,12.30
2023-02-18T05:13:56.002Z,12.20
2023-02-18T05:18:57.792Z,12.10
2023-02-18T05:23:59.578Z,12.10
2023-02-18T05:29:01.314Z,12.10
2023-02-18T05:34:03.121Z,12.10
2023-02-18T05:39:04.890Z,12.00
2023-02-18T05:44:25.417Z,12.10
2023-02-18T05:49:28.712Z,12.10
2023-02-18T05:54:30.983Z,12.00
2023-02-18T05:59:33.022Z,11.90
2023-02-18T06:04:34.826Z,11.80
2023-02-18T06:09:36.628Z,11.90
2023-02-18T06:14:42.170Z,11.90
2023-02-18T06:19:44.224Z,11.90
2023-02-18T06:24:46.141Z,11.80
2023-02-18T06:29:47.827Z,11.90
2023-02-18T06:34:49.546Z,11.80
2023-02-18T06:39:51.292Z,11.80
2023-02-18T06:44:53.060Z,11.80
2023-02-18T06:49:54.892Z,11.90
2023-02-18T06:54:56.728Z,11.90
2023-02-18T06:59:58.787Z,11.90
2023-02-18T07:05:00.585Z,11.90
2023-02-18T07:10:02.482Z,12.00
2023-02-18T07:15:05.097Z,12.00
2023-02-18T07:20:08.377Z,12.00
2023-02-18T07:25:10.183Z,11.90
2023-02-18T07:30:12.461Z,12.00
2023-02-18T07:35:15.648Z,12.10
2023-02-18T07:40:20.771Z,12.00
2023-02-18T07:45:22.516Z,12.10
2023-02-18T07:50:24.225Z,12.10
2023-02-18T07:55:45.991Z,12.30
2023-02-18T08:00:49.549Z,12.30
2023-02-18T08:05:52.028Z,12.20
2023-02-18T08:10:55.527Z,12.20
2023-02-18T08:15:58.432Z,12.30
2023-02-18T08:26:02.358Z,12.40
2023-02-18T08:31:04.324Z,12.40
2023-02-18T08:36:08.384Z,12.60
2023-02-18T08:41:10.819Z,12.70
2023-02-18T08:46:16.181Z,12.70
2023-02-18T08:51:23.339Z,12.80
2023-02-18T08:56:25.132Z,12.80
2023-02-18T09:01:27.084Z,13.30
2023-02-18T09:06:28.892Z,13.30
2023-02-18T09:11:30.961Z,13.00
2023-02-18T09:16:32.777Z,13.10
2023-02-18T09:21:34.627Z,13.40
2023-02-18T09:26:37.073Z,13.40
2023-02-18T09:31:39.482Z,13.50
2023-02-18T09:36:41.418Z,13.50
2023-02-18T09:41:46.508Z,13.60
2023-02-18T09:47:15.776Z,13.70
2023-02-18T09:52:23.884Z,13.80
2023-02-18T09:57:53.436Z,13.90
2023-02-18T10:03:20.108Z,13.80
2023-02-18T10:08:25.870Z,14.00
2023-02-18T10:13:33.897Z,14.40
2023-02-18T10:18:42.917Z,14.50
2023-02-18T10:24:06.608Z,14.40
2023-02-18T10:29:21.517Z,14.00
2023-02-18T10:34:23.664Z,14.30
2023-02-18T10:39:37.239Z,14.40
2023-02-18T10:45:17.189Z,14.30
2023-02-18T10:50:38.092Z,14.30
2023-02-18T10:55:43.576Z,14.60
2023-02-18T11:00:45.392Z,14.50
2023-02-18T11:05:50.722Z,14.20
2023-02-18T11:10:54.094Z,14.30
2023-02-18T11:16:09.452Z,14.10
2023-02-18T11:21:30.169Z,14.60
2023-02-18T11:26:34.248Z,14.90
2023-02-18T11:31:56.872Z,14.80
2023-02-18T11:37:10.535Z,14.30
2023-02-18T11:42:18.739Z,14.30
2023-02-18T11:47:22.296Z,14.30
2023-02-18T11:52:45.074Z,14.50
2023-02-18T11:57:56.330Z,14.40
2023-02-18T12:03:01.894Z,14.80
2023-02-18T12:08:17.537Z,14.20
2023-02-18T12:13:50.940Z,14.10
2023-02-18T12:19:01.162Z,13.80
2023-02-18T12:24:21.587Z,13.90
2023-02-18T12:29:38.305Z,13.90
2023-02-18T12:34:46.299Z,13.90
2023-02-18T12:40:17.355Z,13.90
2023-02-18T12:45:37.593Z,13.80
2023-02-18T12:50:56.726Z,13.90
2023-02-18T12:56:17.263Z,14.50
2023-02-18T13:01:33.393Z,13.80
2023-02-18T13:06:52.868Z,13.80
2023-02-18T13:12:24.798Z,13.80
2023-02-18T13:17:32.843Z,13.80
2023-02-18T13:22:36.091Z,13.80
2023-02-18T13:27:48.368Z,13.80
2023-02-18T13:32:59.520Z,13.70
2023-02-18T13:38:24.490Z,13.80
2023-02-18T13:43:32.526Z,13.80
2023-02-18T13:48:50.856Z,13.70
2023-02-18T13:54:21.053Z,13.60
2023-02-18T13:59:42.235Z,13.50
2023-02-18T14:04:44.020Z,13.50
2023-02-18T14:09:46.838Z,13.60
2023-02-18T14:14:48.561Z,13.50
2023-02-18T14:20:22.099Z,13.60
2023-02-18T14:25:41.402Z,13.50
2023-02-18T14:30:43.449Z,13.40
2023-02-18T14:36:06.625Z,13.40
2023-02-18T14:41:21.537Z,13.40
2023-02-18T14:46:32.716Z,13.20
2023-02-18T14:51:35.088Z,13.40
2023-02-18T14:56:56.038Z,13.40
2023-02-18T15:01:58.306Z,13.40
2023-02-18T15:07:05.466Z,13.40
2023-02-18T15:12:09.661Z,13.30
2023-02-18T15:17:19.231Z,13.30
2023-02-18T15:22:31.732Z,13.20
2023-02-18T15:27:38.578Z,13.30
2023-02-18T15:32:40.377Z,13.20
2023-02-18T15:37:46.761Z,13.20
2023-02-18T15:42:52.935Z,13.00
2023-02-18T15:47:57.354Z,13.10
2023-02-18T15:53:06.041Z,13.00
2023-02-18T15:58:14.928Z,12.90
2023-02-18T16:03:22.022Z,12.80
2023-02-18T16:08:28.058Z,12.80
2023-02-18T16:13:31.475Z,12.90
2023-02-18T16:18:41.536Z,12.90
2023-02-18T16:24:02.891Z,12.70
2023-02-18T16:29:21.140Z,12.70
2023-02-18T16:34:22.841Z,12.80
2023-02-18T16:39:24.595Z,12.80
2023-02-18T16:44:26.677Z,12.60
2023-02-18T16:49:29.753Z,12.50
2023-02-18T16:54:31.542Z,12.40
2023-02-18T16:59:33.621Z,12.30
2023-02-18T17:04:35.494Z,12.40
2023-02-18T17:09:37.333Z,12.50
2023-02-18T17:14:39.261Z,12.60
2023-02-18T17:19:44.071Z,12.40
2023-02-18T17:24:45.857Z,12.10
2023-02-18T17:29:47.602Z,11.90
2023-02-18T17:34:49.397Z,11.90
2023-02-18T17:39:51.179Z,11.80
2023-02-18T17:44:52.987Z,12.00
2023-02-18T17:49:54.741Z,11.90
2023-02-18T17:54:57.078Z,11.90
2023-02-18T17:59:58.994Z,11.80
2023-02-18T18:05:00.852Z,11.80
2023-02-18T18:10:02.670Z,11.70
2023-02-18T18:15:20.166Z,11.80
2023-02-18T18:20:23.389Z,11.70
2023-02-18T18:25:35.882Z,11.50
2023-02-18T18:30:40.755Z,11.40
2023-02-18T18:35:43.015Z,11.30
2023-02-18T18:40:46.649Z,11.30
2023-02-18T18:45:49.938Z,11.30
2023-02-18T18:50:53.363Z,8.80
2023-02-18T18:55:57.633Z,11.10
2023-02-18T19:01:02.629Z,10.90
2023-02-18T19:06:04.653Z,10.90
2023-02-18T19:11:06.664Z,10.90
2023-02-18T19:16:12.404Z,10.90
2023-02-18T19:21:15.079Z,10.80
2023-02-18T19:26:17.183Z,10.80
2023-02-18T19:31:24.009Z,10.50
2023-02-18T19:36:25.954Z,10.90
2023-02-18T19:41:27.704Z,10.70
2023-02-18T19:46:29.650Z,10.30
2023-02-18T19:51:31.482Z,10.70
2023-02-18T19:56:33.283Z,10.50
2023-02-18T20:01:35.074Z,10.30
2023-02-18T20:06:36.989Z,11.00
2023-02-18T20:11:38.806Z,10.40
2023-02-18T20:16:40.765Z,10.50
2023-02-18T20:21:42.604Z,10.50
2023-02-18T20:26:44.741Z,10.60
2023-02-18T20:31:46.730Z,10.50
2023-02-18T20:36:50.380Z,10.40
2023-02-18T20:41:52.338Z,10.30
2023-02-18T20:46:54.399Z,10.30
2023-02-18T20:51:56.484Z,10.30
2023-02-18T21:02:00.949Z,10.30
2023-02-18T21:07:02.875Z,10.10
2023-02-18T21:12:05.133Z,10.00
2023-02-18T21:17:08.560Z,9.90
2023-02-18T21:22:11.659Z,9.90
2023-02-18T21:27:13.544Z,10.00
2023-02-18T21:32:15.421Z,10.40
2023-02-18T21:37:17.354Z,10.10
2023-02-18T21:42:19.092Z,10.10
2023-02-18T21:47:20.944Z,10.00
2023-02-18T21:52:25.964Z,10.10
2023-02-18T21:57:28.065Z,9.80
2023-02-18T22:02:31.943Z,6.20
2023-02-18T22:07:34.594Z,9.90
2023-02-18T22:12:36.439Z,9.90
2023-02-18T22:17:38.270Z,9.80
2023-02-18T22:22:40.112Z,9.80
2023-02-18T22:27:41.915Z,9.80
2023-02-18T22:32:43.668Z,9.60
2023-02-18T22:37:45.504Z,9.40
2023-02-18T22:42:47.216Z,9.70
2023-02-18T22:47:48.953Z,9.60
2023-02-18T22:52:50.684Z,9.80
2023-02-18T22:57:52.486Z,9.80
2023-02-18T23:02:54.359Z,9.70
2023-02-18T23:07:56.672Z,9.80
2023-02-18T23:12:58.467Z,9.70
2023-02-18T23:18:00.330Z,9.70
2023-02-18T23:28:04.424Z,9.60
2023-02-18T23:38:09.340Z,9.60
2023-02-18T23:43:11.209Z,9.40
2023-02-18T23:48:12.886Z,9.60
2023-02-18T23:53:14.724Z,9.60
2023-02-18T23:58:16.638Z,9.60
